sensor_id;sensor_type;location;lat;lon;timestamp;P1;durP1;ratioP1;P2;durP2;ratioP2
66429;SDS011;53242;51.694;10.006;2022-08-25T00:01:52;6.32;;;2.40;;
66429;SDS011;53242;51.694;10.006;2022-08-25T00:04:17;5.88;;;2.13;;
66429;SDS011;53242;51.694;10.006;2022-08-25T00:09:04;5.60;;;2.30;;
66429;SDS011;53242;51.694;10.006;2022-08-25T00:11:28;8.43;;;2.58;;
66429;SDS011;53242;51.694;10.006;2022-08-25T00:13:55;6.93;;;2.60;;
66429;SDS011;53242;51.694;10.006;2022-08-25T00:16:20;6.05;;;2.30;;
66429;SDS011;53242;51.694;10.006;2022-08-25T00:21:07;5.15;;;2.35;;
66429;SDS011;53242;51.694;10.006;2022-08-25T00:23:30;7.78;;;2.50;;
66429;SDS011;53242;51.694;10.006;2022-08-25T00:25:53;5.05;;;2.17;;
66429;SDS011;53242;51.694;10.006;2022-08-25T00:28:16;4.90;;;2.38;;
66429;SDS011;53242;51.694;10.006;2022-08-25T00:30:39;6.13;;;2.33;;
66429;SDS011;53242;51.694;10.006;2022-08-25T00:33:01;6.68;;;2.45;;
66429;SDS011;53242;51.694;10.006;2022-08-25T00:35:25;8.40;;;2.60;;
66429;SDS011;53242;51.694;10.006;2022-08-25T00:37:48;6.00;;;2.58;;
66429;SDS011;53242;51.694;10.006;2022-08-25T00:40:10;6.68;;;2.45;;
66429;SDS011;53242;51.694;10.006;2022-08-25T00:42:33;5.22;;;2.30;;
66429;SDS011;53242;51.694;10.006;2022-08-25T00:44:55;4.88;;;2.10;;
66429;SDS011;53242;51.694;10.006;2022-08-25T00:47:19;6.28;;;2.28;;
66429;SDS011;53242;51.694;10.006;2022-08-25T00:49:42;7.35;;;2.63;;
66429;SDS011;53242;51.694;10.006;2022-08-25T00:57:23;7.97;;;2.83;;
66429;SDS011;53242;51.694;10.006;2022-08-25T00:59:51;6.00;;;2.38;;
66429;SDS011;53242;51.694;10.006;2022-08-25T01:02:14;5.60;;;2.53;;
66429;SDS011;53242;51.694;10.006;2022-08-25T01:04:37;6.30;;;2.75;;
66429;SDS011;53242;51.694;10.006;2022-08-25T01:06:59;6.68;;;3.22;;
66429;SDS011;53242;51.694;10.006;2022-08-25T01:09:23;5.28;;;2.67;;
66429;SDS011;53242;51.694;10.006;2022-08-25T01:11:46;10.10;;;3.10;;
66429;SDS011;53242;51.694;10.006;2022-08-25T01:14:10;7.50;;;2.80;;
66429;SDS011;53242;51.694;10.006;2022-08-25T01:16:36;6.65;;;2.60;;
66429;SDS011;53242;51.694;10.006;2022-08-25T01:18:59;6.25;;;2.67;;
66429;SDS011;53242;51.694;10.006;2022-08-25T01:21:23;6.45;;;2.58;;
66429;SDS011;53242;51.694;10.006;2022-08-25T01:23:47;7.93;;;2.22;;
66429;SDS011;53242;51.694;10.006;2022-08-25T01:28:38;4.80;;;2.40;;
66429;SDS011;53242;51.694;10.006;2022-08-25T01:33:44;7.18;;;2.38;;
66429;SDS011;53242;51.694;10.006;2022-08-25T01:36:06;8.38;;;2.58;;
66429;SDS011;53242;51.694;10.006;2022-08-25T01:38:29;6.60;;;2.67;;
66429;SDS011;53242;51.694;10.006;2022-08-25T01:40:51;7.93;;;3.03;;
66429;SDS011;53242;51.694;10.006;2022-08-25T01:45:37;6.25;;;2.88;;
66429;SDS011;53242;51.694;10.006;2022-08-25T01:48:01;7.60;;;2.70;;
66429;SDS011;53242;51.694;10.006;2022-08-25T01:50:26;8.40;;;3.10;;
66429;SDS011;53242;51.694;10.006;2022-08-25T01:52:58;6.88;;;2.83;;
66429;SDS011;53242;51.694;10.006;2022-08-25T01:55:28;6.28;;;2.90;;
66429;SDS011;53242;51.694;10.006;2022-08-25T01:57:51;7.45;;;2.95;;
66429;SDS011;53242;51.694;10.006;2022-08-25T02:00:14;6.88;;;3.10;;
66429;SDS011;53242;51.694;10.006;2022-08-25T02:02:41;8.02;;;3.08;;
66429;SDS011;53242;51.694;10.006;2022-08-25T02:05:03;6.95;;;3.22;;
66429;SDS011;53242;51.694;10.006;2022-08-25T02:07:26;7.28;;;3.15;;
66429;SDS011;53242;51.694;10.006;2022-08-25T02:09:49;7.72;;;3.15;;
66429;SDS011;53242;51.694;10.006;2022-08-25T02:12:11;8.75;;;3.63;;
66429;SDS011;53242;51.694;10.006;2022-08-25T02:14:34;6.45;;;3.15;;
66429;SDS011;53242;51.694;10.006;2022-08-25T02:16:57;8.77;;;3.63;;
66429;SDS011;53242;51.694;10.006;2022-08-25T02:19:20;10.75;;;3.50;;
66429;SDS011;53242;51.694;10.006;2022-08-25T02:21:45;8.35;;;3.35;;
66429;SDS011;53242;51.694;10.006;2022-08-25T02:24:08;8.60;;;3.20;;
66429;SDS011;53242;51.694;10.006;2022-08-25T02:26:31;11.40;;;4.10;;
66429;SDS011;53242;51.694;10.006;2022-08-25T02:28:54;10.32;;;3.70;;
66429;SDS011;53242;51.694;10.006;2022-08-25T02:31:17;9.18;;;3.97;;
66429;SDS011;53242;51.694;10.006;2022-08-25T02:33:41;8.75;;;3.90;;
66429;SDS011;53242;51.694;10.006;2022-08-25T02:36:04;9.35;;;3.75;;
66429;SDS011;53242;51.694;10.006;2022-08-25T02:38:28;8.85;;;3.40;;
66429;SDS011;53242;51.694;10.006;2022-08-25T02:40:51;9.00;;;3.28;;
66429;SDS011;53242;51.694;10.006;2022-08-25T02:43:14;7.60;;;3.25;;
66429;SDS011;53242;51.694;10.006;2022-08-25T02:45:36;6.55;;;3.00;;
66429;SDS011;53242;51.694;10.006;2022-08-25T02:47:59;8.30;;;3.15;;
66429;SDS011;53242;51.694;10.006;2022-08-25T02:50:21;8.55;;;2.97;;
66429;SDS011;53242;51.694;10.006;2022-08-25T02:52:44;8.10;;;3.20;;
66429;SDS011;53242;51.694;10.006;2022-08-25T02:55:07;7.95;;;3.10;;
66429;SDS011;53242;51.694;10.006;2022-08-25T02:57:34;5.70;;;2.88;;
66429;SDS011;53242;51.694;10.006;2022-08-25T02:59:57;6.30;;;3.08;;
66429;SDS011;53242;51.694;10.006;2022-08-25T03:02:19;8.30;;;3.17;;
66429;SDS011;53242;51.694;10.006;2022-08-25T03:04:42;6.45;;;2.80;;
66429;SDS011;53242;51.694;10.006;2022-08-25T03:07:05;6.30;;;2.92;;
66429;SDS011;53242;51.694;10.006;2022-08-25T03:09:27;6.80;;;3.15;;
66429;SDS011;53242;51.694;10.006;2022-08-25T03:11:50;8.73;;;3.22;;
66429;SDS011;53242;51.694;10.006;2022-08-25T03:14:12;6.65;;;3.00;;
66429;SDS011;53242;51.694;10.006;2022-08-25T03:16:35;9.32;;;3.28;;
66429;SDS011;53242;51.694;10.006;2022-08-25T03:18:58;7.07;;;3.20;;
66429;SDS011;53242;51.694;10.006;2022-08-25T03:21:20;7.60;;;2.95;;
66429;SDS011;53242;51.694;10.006;2022-08-25T03:23:43;6.55;;;3.13;;
66429;SDS011;53242;51.694;10.006;2022-08-25T03:26:07;9.68;;;3.50;;
66429;SDS011;53242;51.694;10.006;2022-08-25T03:28:48;9.57;;;2.88;;
66429;SDS011;53242;51.694;10.006;2022-08-25T03:31:11;6.63;;;3.03;;
66429;SDS011;53242;51.694;10.006;2022-08-25T03:33:34;7.13;;;3.35;;
66429;SDS011;53242;51.694;10.006;2022-08-25T03:35:57;9.57;;;3.40;;
66429;SDS011;53242;51.694;10.006;2022-08-25T03:38:21;9.40;;;3.67;;
66429;SDS011;53242;51.694;10.006;2022-08-25T03:40:44;12.48;;;4.53;;
66429;SDS011;53242;51.694;10.006;2022-08-25T03:43:07;12.20;;;4.18;;
66429;SDS011;53242;51.694;10.006;2022-08-25T03:45:29;8.70;;;4.00;;
66429;SDS011;53242;51.694;10.006;2022-08-25T03:47:52;12.00;;;4.40;;
66429;SDS011;53242;51.694;10.006;2022-08-25T03:50:16;12.38;;;4.60;;
66429;SDS011;53242;51.694;10.006;2022-08-25T03:52:41;10.13;;;4.00;;
66429;SDS011;53242;51.694;10.006;2022-08-25T03:55:05;11.02;;;4.13;;
66429;SDS011;53242;51.694;10.006;2022-08-25T03:57:29;9.93;;;4.50;;
66429;SDS011;53242;51.694;10.006;2022-08-25T03:59:51;9.63;;;4.32;;
66429;SDS011;53242;51.694;10.006;2022-08-25T04:02:14;10.30;;;3.83;;
66429;SDS011;53242;51.694;10.006;2022-08-25T04:04:36;10.02;;;3.90;;
66429;SDS011;53242;51.694;10.006;2022-08-25T04:06:58;9.45;;;3.60;;
66429;SDS011;53242;51.694;10.006;2022-08-25T04:09:21;7.60;;;3.75;;
66429;SDS011;53242;51.694;10.006;2022-08-25T04:11:43;8.82;;;3.65;;
66429;SDS011;53242;51.694;10.006;2022-08-25T04:14:06;11.82;;;3.53;;
66429;SDS011;53242;51.694;10.006;2022-08-25T04:16:29;8.90;;;3.70;;
66429;SDS011;53242;51.694;10.006;2022-08-25T04:18:53;10.80;;;4.18;;
66429;SDS011;53242;51.694;10.006;2022-08-25T04:21:17;9.35;;;4.00;;
66429;SDS011;53242;51.694;10.006;2022-08-25T04:23:41;10.57;;;4.10;;
66429;SDS011;53242;51.694;10.006;2022-08-25T04:28:33;10.13;;;3.83;;
66429;SDS011;53242;51.694;10.006;2022-08-25T04:30:55;9.38;;;3.80;;
66429;SDS011;53242;51.694;10.006;2022-08-25T04:33:18;8.00;;;3.47;;
66429;SDS011;53242;51.694;10.006;2022-08-25T04:35:45;8.52;;;3.58;;
66429;SDS011;53242;51.694;10.006;2022-08-25T04:38:08;10.35;;;3.80;;
66429;SDS011;53242;51.694;10.006;2022-08-25T04:40:31;9.48;;;3.38;;
66429;SDS011;53242;51.694;10.006;2022-08-25T04:42:53;11.30;;;3.25;;
66429;SDS011;53242;51.694;10.006;2022-08-25T04:45:16;8.77;;;3.83;;
66429;SDS011;53242;51.694;10.006;2022-08-25T04:47:39;7.63;;;3.50;;
66429;SDS011;53242;51.694;10.006;2022-08-25T04:50:02;7.78;;;3.67;;
66429;SDS011;53242;51.694;10.006;2022-08-25T04:52:24;7.93;;;3.65;;
66429;SDS011;53242;51.694;10.006;2022-08-25T04:54:47;6.95;;;3.25;;
66429;SDS011;53242;51.694;10.006;2022-08-25T04:57:09;7.38;;;3.47;;
66429;SDS011;53242;51.694;10.006;2022-08-25T04:59:32;7.88;;;3.70;;
66429;SDS011;53242;51.694;10.006;2022-08-25T05:01:54;8.95;;;3.63;;
66429;SDS011;53242;51.694;10.006;2022-08-25T05:04:19;7.47;;;4.03;;
66429;SDS011;53242;51.694;10.006;2022-08-25T05:06:42;8.98;;;3.72;;
66429;SDS011;53242;51.694;10.006;2022-08-25T05:09:05;9.63;;;3.80;;
66429;SDS011;53242;51.694;10.006;2022-08-25T05:11:28;10.15;;;3.80;;
66429;SDS011;53242;51.694;10.006;2022-08-25T05:13:51;8.52;;;3.90;;
66429;SDS011;53242;51.694;10.006;2022-08-25T05:16:16;8.45;;;3.67;;
66429;SDS011;53242;51.694;10.006;2022-08-25T05:18:39;11.40;;;3.75;;
66429;SDS011;53242;51.694;10.006;2022-08-25T05:21:07;8.40;;;3.70;;
66429;SDS011;53242;51.694;10.006;2022-08-25T05:23:30;10.15;;;4.07;;
66429;SDS011;53242;51.694;10.006;2022-08-25T05:25:53;9.38;;;4.07;;
66429;SDS011;53242;51.694;10.006;2022-08-25T05:28:17;11.05;;;4.00;;
66429;SDS011;53242;51.694;10.006;2022-08-25T05:30:44;8.93;;;3.70;;
66429;SDS011;53242;51.694;10.006;2022-08-25T05:33:07;9.40;;;3.60;;
66429;SDS011;53242;51.694;10.006;2022-08-25T05:35:31;10.23;;;3.72;;
66429;SDS011;53242;51.694;10.006;2022-08-25T05:37:53;10.82;;;3.95;;
66429;SDS011;53242;51.694;10.006;2022-08-25T05:40:18;9.25;;;3.72;;
66429;SDS011;53242;51.694;10.006;2022-08-25T05:42:41;11.68;;;3.85;;
66429;SDS011;53242;51.694;10.006;2022-08-25T05:45:04;11.60;;;4.05;;
66429;SDS011;53242;51.694;10.006;2022-08-25T05:47:27;9.65;;;4.07;;
66429;SDS011;53242;51.694;10.006;2022-08-25T05:49:49;9.52;;;3.90;;
66429;SDS011;53242;51.694;10.006;2022-08-25T05:52:12;9.70;;;3.85;;
66429;SDS011;53242;51.694;10.006;2022-08-25T05:54:34;10.20;;;4.30;;
66429;SDS011;53242;51.694;10.006;2022-08-25T05:56:57;7.95;;;3.80;;
66429;SDS011;53242;51.694;10.006;2022-08-25T05:59:20;8.38;;;3.60;;
66429;SDS011;53242;51.694;10.006;2022-08-25T06:01:42;8.55;;;3.97;;
66429;SDS011;53242;51.694;10.006;2022-08-25T06:04:23;11.38;;;4.20;;
66429;SDS011;53242;51.694;10.006;2022-08-25T06:06:46;9.73;;;3.65;;
66429;SDS011;53242;51.694;10.006;2022-08-25T06:09:09;8.35;;;4.10;;
66429;SDS011;53242;51.694;10.006;2022-08-25T06:11:32;9.10;;;3.85;;
66429;SDS011;53242;51.694;10.006;2022-08-25T06:13:54;9.57;;;3.75;;
66429;SDS011;53242;51.694;10.006;2022-08-25T06:27:29;8.25;;;3.33;;
66429;SDS011;53242;51.694;10.006;2022-08-25T06:29:51;11.55;;;3.58;;
66429;SDS011;53242;51.694;10.006;2022-08-25T06:32:14;9.82;;;4.15;;
66429;SDS011;53242;51.694;10.006;2022-08-25T06:34:36;11.07;;;3.88;;
66429;SDS011;53242;51.694;10.006;2022-08-25T06:36:59;10.50;;;4.00;;
66429;SDS011;53242;51.694;10.006;2022-08-25T06:39:22;10.15;;;3.83;;
66429;SDS011;53242;51.694;10.006;2022-08-25T06:41:45;8.57;;;3.70;;
66429;SDS011;53242;51.694;10.006;2022-08-25T06:44:13;10.23;;;3.47;;
66429;SDS011;53242;51.694;10.006;2022-08-25T06:46:36;9.50;;;3.83;;
66429;SDS011;53242;51.694;10.006;2022-08-25T06:48:58;12.85;;;4.50;;
66429;SDS011;53242;51.694;10.006;2022-08-25T06:51:22;12.75;;;3.92;;
66429;SDS011;53242;51.694;10.006;2022-08-25T06:53:47;10.82;;;4.20;;
66429;SDS011;53242;51.694;10.006;2022-08-25T06:56:11;9.30;;;3.88;;
66429;SDS011;53242;51.694;10.006;2022-08-25T06:58:34;9.32;;;3.95;;
66429;SDS011;53242;51.694;10.006;2022-08-25T07:03:44;9.45;;;3.97;;
66429;SDS011;53242;51.694;10.006;2022-08-25T07:06:07;8.98;;;4.05;;
66429;SDS011;53242;51.694;10.006;2022-08-25T07:08:29;9.43;;;3.60;;
66429;SDS011;53242;51.694;10.006;2022-08-25T07:10:52;11.43;;;4.05;;
66429;SDS011;53242;51.694;10.006;2022-08-25T07:13:15;7.57;;;3.63;;
66429;SDS011;53242;51.694;10.006;2022-08-25T07:15:38;9.18;;;3.55;;
66429;SDS011;53242;51.694;10.006;2022-08-25T07:18:01;9.18;;;3.72;;
66429;SDS011;53242;51.694;10.006;2022-08-25T07:20:24;8.23;;;4.15;;
66429;SDS011;53242;51.694;10.006;2022-08-25T07:22:46;9.85;;;3.55;;
66429;SDS011;53242;51.694;10.006;2022-08-25T07:25:09;8.32;;;3.10;;
66429;SDS011;53242;51.694;10.006;2022-08-25T07:27:32;9.75;;;3.42;;
66429;SDS011;53242;51.694;10.006;2022-08-25T07:29:56;10.00;;;4.13;;
66429;SDS011;53242;51.694;10.006;2022-08-25T07:32:19;9.57;;;3.42;;
66429;SDS011;53242;51.694;10.006;2022-08-25T07:34:41;9.52;;;3.75;;
66429;SDS011;53242;51.694;10.006;2022-08-25T07:37:23;8.02;;;3.53;;
66429;SDS011;53242;51.694;10.006;2022-08-25T07:39:46;8.93;;;3.88;;
66429;SDS011;53242;51.694;10.006;2022-08-25T07:42:10;9.68;;;3.90;;
66429;SDS011;53242;51.694;10.006;2022-08-25T07:44:33;8.90;;;4.00;;
66429;SDS011;53242;51.694;10.006;2022-08-25T07:46:56;15.23;;;4.53;;
66429;SDS011;53242;51.694;10.006;2022-08-25T07:49:20;11.77;;;5.10;;
66429;SDS011;53242;51.694;10.006;2022-08-25T07:51:44;11.40;;;5.05;;
66429;SDS011;53242;51.694;10.006;2022-08-25T07:54:07;13.82;;;6.07;;
66429;SDS011;53242;51.694;10.006;2022-08-25T07:56:29;9.13;;;4.47;;
66429;SDS011;53242;51.694;10.006;2022-08-25T07:58:52;10.35;;;4.80;;
66429;SDS011;53242;51.694;10.006;2022-08-25T08:01:19;13.00;;;5.10;;
66429;SDS011;53242;51.694;10.006;2022-08-25T08:03:43;10.27;;;5.55;;
66429;SDS011;53242;51.694;10.006;2022-08-25T08:06:07;11.93;;;5.20;;
66429;SDS011;53242;51.694;10.006;2022-08-25T08:08:30;11.52;;;4.85;;
66429;SDS011;53242;51.694;10.006;2022-08-25T08:10:53;11.32;;;5.28;;
66429;SDS011;53242;51.694;10.006;2022-08-25T08:13:15;9.73;;;5.40;;
66429;SDS011;53242;51.694;10.006;2022-08-25T08:15:40;12.18;;;5.10;;
66429;SDS011;53242;51.694;10.006;2022-08-25T08:18:04;12.65;;;6.03;;
66429;SDS011;53242;51.694;10.006;2022-08-25T08:20:27;10.77;;;5.45;;
66429;SDS011;53242;51.694;10.006;2022-08-25T08:22:50;14.88;;;6.20;;
66429;SDS011;53242;51.694;10.006;2022-08-25T08:25:13;12.52;;;6.13;;
66429;SDS011;53242;51.694;10.006;2022-08-25T08:27:35;13.38;;;6.60;;
66429;SDS011;53242;51.694;10.006;2022-08-25T08:29:58;14.32;;;6.68;;
66429;SDS011;53242;51.694;10.006;2022-08-25T08:32:21;13.90;;;6.38;;
66429;SDS011;53242;51.694;10.006;2022-08-25T08:34:44;13.07;;;6.88;;
66429;SDS011;53242;51.694;10.006;2022-08-25T08:37:08;16.27;;;7.28;;
66429;SDS011;53242;51.694;10.006;2022-08-25T08:39:30;14.48;;;6.53;;
66429;SDS011;53242;51.694;10.006;2022-08-25T08:41:59;13.77;;;6.88;;
66429;SDS011;53242;51.694;10.006;2022-08-25T08:44:41;16.33;;;6.85;;
66429;SDS011;53242;51.694;10.006;2022-08-25T08:47:11;17.02;;;7.72;;
66429;SDS011;53242;51.694;10.006;2022-08-25T08:52:15;18.42;;;7.45;;
66429;SDS011;53242;51.694;10.006;2022-08-25T08:54:43;18.42;;;8.02;;
66429;SDS011;53242;51.694;10.006;2022-08-25T08:57:15;15.43;;;7.22;;
66429;SDS011;53242;51.694;10.006;2022-08-25T08:59:44;16.33;;;7.68;;
66429;SDS011;53242;51.694;10.006;2022-08-25T09:02:46;14.55;;;7.68;;
66429;SDS011;53242;51.694;10.006;2022-08-25T09:05:09;13.30;;;7.97;;
66429;SDS011;53242;51.694;10.006;2022-08-25T09:10:16;14.75;;;7.90;;
66429;SDS011;53242;51.694;10.006;2022-08-25T09:12:45;19.35;;;7.90;;
66429;SDS011;53242;51.694;10.006;2022-08-25T09:23:32;15.43;;;7.70;;
66429;SDS011;53242;51.694;10.006;2022-08-25T09:26:09;16.90;;;7.30;;
66429;SDS011;53242;51.694;10.006;2022-08-25T09:28:58;16.58;;;6.97;;
66429;SDS011;53242;51.694;10.006;2022-08-25T09:31:25;15.25;;;7.20;;
66429;SDS011;53242;51.694;10.006;2022-08-25T09:33:53;18.27;;;7.68;;
66429;SDS011;53242;51.694;10.006;2022-08-25T09:36:18;15.05;;;7.25;;
66429;SDS011;53242;51.694;10.006;2022-08-25T09:38:40;13.60;;;7.32;;
66429;SDS011;53242;51.694;10.006;2022-08-25T09:41:03;16.30;;;7.47;;
66429;SDS011;53242;51.694;10.006;2022-08-25T09:48:31;18.92;;;9.07;;
66429;SDS011;53242;51.694;10.006;2022-08-25T09:51:09;15.27;;;7.82;;
66429;SDS011;53242;51.694;10.006;2022-08-25T09:53:55;14.02;;;6.40;;
66429;SDS011;53242;51.694;10.006;2022-08-25T09:56:22;14.20;;;7.32;;
66429;SDS011;53242;51.694;10.006;2022-08-25T09:58:47;17.52;;;7.30;;
66429;SDS011;53242;51.694;10.006;2022-08-25T10:01:20;15.05;;;7.57;;
66429;SDS011;53242;51.694;10.006;2022-08-25T10:06:19;18.15;;;7.47;;
66429;SDS011;53242;51.694;10.006;2022-08-25T10:11:09;15.35;;;7.35;;
66429;SDS011;53242;51.694;10.006;2022-08-25T10:13:45;17.70;;;7.90;;
66429;SDS011;53242;51.694;10.006;2022-08-25T10:16:20;14.85;;;7.05;;
66429;SDS011;53242;51.694;10.006;2022-08-25T10:18:50;12.65;;;6.85;;
66429;SDS011;53242;51.694;10.006;2022-08-25T10:21:41;16.38;;;6.95;;
66429;SDS011;53242;51.694;10.006;2022-08-25T10:24:04;13.30;;;6.78;;
66429;SDS011;53242;51.694;10.006;2022-08-25T10:26:33;15.70;;;6.97;;
66429;SDS011;53242;51.694;10.006;2022-08-25T10:39:42;16.98;;;7.25;;
66429;SDS011;53242;51.694;10.006;2022-08-25T10:42:19;14.60;;;6.70;;
66429;SDS011;53242;51.694;10.006;2022-08-25T10:44:55;14.10;;;7.03;;
66429;SDS011;53242;51.694;10.006;2022-08-25T10:50:47;15.07;;;7.43;;
66429;SDS011;53242;51.694;10.006;2022-08-25T10:59:01;14.05;;;6.88;;
66429;SDS011;53242;51.694;10.006;2022-08-25T11:04:31;13.40;;;7.75;;
66429;SDS011;53242;51.694;10.006;2022-08-25T11:07:02;13.95;;;7.30;;
66429;SDS011;53242;51.694;10.006;2022-08-25T11:09:38;13.00;;;7.28;;
66429;SDS011;53242;51.694;10.006;2022-08-25T11:19:28;9.77;;;5.85;;
66429;SDS011;53242;51.694;10.006;2022-08-25T11:22:03;11.15;;;6.38;;
66429;SDS011;53242;51.694;10.006;2022-08-25T11:27:24;12.15;;;6.50;;
66429;SDS011;53242;51.694;10.006;2022-08-25T11:29:57;14.07;;;6.47;;
66429;SDS011;53242;51.694;10.006;2022-08-25T11:32:26;13.77;;;6.82;;
66429;SDS011;53242;51.694;10.006;2022-08-25T11:34:48;13.13;;;7.15;;
66429;SDS011;53242;51.694;10.006;2022-08-25T11:37:26;12.15;;;6.80;;
66429;SDS011;53242;51.694;10.006;2022-08-25T11:50:56;13.90;;;6.75;;
66429;SDS011;53242;51.694;10.006;2022-08-25T11:53:42;13.75;;;7.05;;
66429;SDS011;53242;51.694;10.006;2022-08-25T11:56:07;12.63;;;6.47;;
66429;SDS011;53242;51.694;10.006;2022-08-25T11:58:51;13.40;;;6.97;;
66429;SDS011;53242;51.694;10.006;2022-08-25T12:09:29;14.40;;;6.78;;
66429;SDS011;53242;51.694;10.006;2022-08-25T12:11:54;15.52;;;6.93;;
66429;SDS011;53242;51.694;10.006;2022-08-25T12:21:56;14.00;;;7.03;;
66429;SDS011;53242;51.694;10.006;2022-08-25T12:27:03;13.50;;;7.07;;
66429;SDS011;53242;51.694;10.006;2022-08-25T12:29:31;12.95;;;6.82;;
66429;SDS011;53242;51.694;10.006;2022-08-25T12:32:11;15.00;;;6.95;;
66429;SDS011;53242;51.694;10.006;2022-08-25T12:37:14;12.65;;;7.18;;
66429;SDS011;53242;51.694;10.006;2022-08-25T12:42:44;13.20;;;6.90;;
66429;SDS011;53242;51.694;10.006;2022-08-25T12:47:35;12.18;;;6.70;;
66429;SDS011;53242;51.694;10.006;2022-08-25T12:52:53;12.52;;;7.13;;
66429;SDS011;53242;51.694;10.006;2022-08-25T12:55:23;15.13;;;6.85;;
66429;SDS011;53242;51.694;10.006;2022-08-25T12:57:54;12.32;;;7.20;;
66429;SDS011;53242;51.694;10.006;2022-08-25T13:00:30;14.02;;;6.65;;
66429;SDS011;53242;51.694;10.006;2022-08-25T13:06:13;12.57;;;6.50;;
66429;SDS011;53242;51.694;10.006;2022-08-25T13:11:43;12.60;;;6.57;;
66429;SDS011;53242;51.694;10.006;2022-08-25T13:14:25;14.82;;;6.20;;
66429;SDS011;53242;51.694;10.006;2022-08-25T13:16:52;11.98;;;6.78;;
66429;SDS011;53242;51.694;10.006;2022-08-25T13:19:19;12.55;;;6.30;;
66429;SDS011;53242;51.694;10.006;2022-08-25T13:21:42;16.13;;;7.07;;
66429;SDS011;53242;51.694;10.006;2022-08-25T13:24:06;14.63;;;7.55;;
66429;SDS011;53242;51.694;10.006;2022-08-25T13:26:39;11.20;;;6.30;;
66429;SDS011;53242;51.694;10.006;2022-08-25T13:31:30;13.25;;;6.75;;
66429;SDS011;53242;51.694;10.006;2022-08-25T13:33:57;13.98;;;6.97;;
66429;SDS011;53242;51.694;10.006;2022-08-25T13:36:31;14.80;;;6.43;;
66429;SDS011;53242;51.694;10.006;2022-08-25T13:39:23;10.88;;;5.78;;
66429;SDS011;53242;51.694;10.006;2022-08-25T13:41:48;11.32;;;6.25;;
66429;SDS011;53242;51.694;10.006;2022-08-25T13:44:16;11.70;;;5.38;;
66429;SDS011;53242;51.694;10.006;2022-08-25T13:46:41;11.43;;;6.50;;
66429;SDS011;53242;51.694;10.006;2022-08-25T13:49:07;10.77;;;6.45;;
66429;SDS011;53242;51.694;10.006;2022-08-25T13:51:30;14.23;;;5.93;;
66429;SDS011;53242;51.694;10.006;2022-08-25T13:53:57;13.38;;;6.10;;
66429;SDS011;53242;51.694;10.006;2022-08-25T13:56:23;14.02;;;6.57;;
66429;SDS011;53242;51.694;10.006;2022-08-25T13:58:48;12.50;;;5.68;;
66429;SDS011;53242;51.694;10.006;2022-08-25T14:01:27;12.07;;;6.55;;
66429;SDS011;53242;51.694;10.006;2022-08-25T14:03:53;10.82;;;6.20;;
66429;SDS011;53242;51.694;10.006;2022-08-25T14:06:24;15.95;;;6.63;;
66429;SDS011;53242;51.694;10.006;2022-08-25T14:11:27;12.65;;;6.50;;
66429;SDS011;53242;51.694;10.006;2022-08-25T14:14:07;12.45;;;6.13;;
66429;SDS011;53242;51.694;10.006;2022-08-25T14:16:36;10.68;;;6.30;;
66429;SDS011;53242;51.694;10.006;2022-08-25T14:19:11;11.90;;;6.95;;
66429;SDS011;53242;51.694;10.006;2022-08-25T14:21:36;11.05;;;6.22;;
66429;SDS011;53242;51.694;10.006;2022-08-25T14:23:59;11.50;;;6.60;;
66429;SDS011;53242;51.694;10.006;2022-08-25T14:26:21;14.65;;;6.70;;
66429;SDS011;53242;51.694;10.006;2022-08-25T14:28:44;15.63;;;6.75;;
66429;SDS011;53242;51.694;10.006;2022-08-25T14:31:08;13.48;;;6.32;;
66429;SDS011;53242;51.694;10.006;2022-08-25T14:33:42;14.52;;;6.57;;
66429;SDS011;53242;51.694;10.006;2022-08-25T14:36:09;13.23;;;5.80;;
66429;SDS011;53242;51.694;10.006;2022-08-25T14:38:32;10.90;;;6.00;;
66429;SDS011;53242;51.694;10.006;2022-08-25T14:40:54;14.40;;;6.47;;
66429;SDS011;53242;51.694;10.006;2022-08-25T14:43:17;14.10;;;6.53;;
66429;SDS011;53242;51.694;10.006;2022-08-25T14:45:41;12.30;;;6.28;;
66429;SDS011;53242;51.694;10.006;2022-08-25T14:48:07;11.63;;;5.72;;
66429;SDS011;53242;51.694;10.006;2022-08-25T14:50:34;12.07;;;5.80;;
66429;SDS011;53242;51.694;10.006;2022-08-25T14:52:57;12.95;;;6.18;;
66429;SDS011;53242;51.694;10.006;2022-08-25T14:55:19;12.70;;;5.75;;
66429;SDS011;53242;51.694;10.006;2022-08-25T14:57:42;13.98;;;6.00;;
66429;SDS011;53242;51.694;10.006;2022-08-25T15:00:05;11.63;;;5.53;;
66429;SDS011;53242;51.694;10.006;2022-08-25T15:02:29;10.98;;;6.18;;
66429;SDS011;53242;51.694;10.006;2022-08-25T15:04:54;11.88;;;6.07;;
66429;SDS011;53242;51.694;10.006;2022-08-25T15:07:20;12.15;;;6.10;;
66429;SDS011;53242;51.694;10.006;2022-08-25T15:10:02;12.95;;;5.57;;
66429;SDS011;53242;51.694;10.006;2022-08-25T15:14:47;9.18;;;5.75;;
66429;SDS011;53242;51.694;10.006;2022-08-25T15:17:10;15.02;;;6.05;;
66429;SDS011;53242;51.694;10.006;2022-08-25T15:19:33;13.98;;;6.32;;
66429;SDS011;53242;51.694;10.006;2022-08-25T15:21:56;11.35;;;6.03;;
66429;SDS011;53242;51.694;10.006;2022-08-25T15:24:19;9.52;;;5.80;;
66429;SDS011;53242;51.694;10.006;2022-08-25T15:26:46;12.30;;;5.75;;
66429;SDS011;53242;51.694;10.006;2022-08-25T15:29:12;16.17;;;6.07;;
66429;SDS011;53242;51.694;10.006;2022-08-25T15:31:35;11.85;;;5.88;;
66429;SDS011;53242;51.694;10.006;2022-08-25T15:33:57;11.18;;;5.72;;
66429;SDS011;53242;51.694;10.006;2022-08-25T15:36:21;10.23;;;5.38;;
66429;SDS011;53242;51.694;10.006;2022-08-25T15:38:46;12.45;;;5.65;;
66429;SDS011;53242;51.694;10.006;2022-08-25T15:41:09;12.85;;;6.03;;
66429;SDS011;53242;51.694;10.006;2022-08-25T15:45:55;10.40;;;5.50;;
66429;SDS011;53242;51.694;10.006;2022-08-25T15:48:17;13.07;;;6.53;;
66429;SDS011;53242;51.694;10.006;2022-08-25T15:50:40;12.20;;;5.60;;
66429;SDS011;53242;51.694;10.006;2022-08-25T15:53:02;11.77;;;5.65;;
66429;SDS011;53242;51.694;10.006;2022-08-25T15:55:25;12.40;;;6.13;;
66429;SDS011;53242;51.694;10.006;2022-08-25T15:57:48;15.30;;;5.43;;
66429;SDS011;53242;51.694;10.006;2022-08-25T16:00:11;14.07;;;6.28;;
66429;SDS011;53242;51.694;10.006;2022-08-25T16:02:34;12.57;;;5.55;;
66429;SDS011;53242;51.694;10.006;2022-08-25T16:04:56;13.40;;;5.57;;
66429;SDS011;53242;51.694;10.006;2022-08-25T16:07:19;11.88;;;5.80;;
66429;SDS011;53242;51.694;10.006;2022-08-25T16:09:41;13.13;;;5.72;;
66429;SDS011;53242;51.694;10.006;2022-08-25T16:12:04;11.82;;;5.60;;
66429;SDS011;53242;51.694;10.006;2022-08-25T16:14:26;12.60;;;5.63;;
66429;SDS011;53242;51.694;10.006;2022-08-25T16:16:49;13.68;;;6.00;;
66429;SDS011;53242;51.694;10.006;2022-08-25T16:19:11;14.70;;;6.18;;
66429;SDS011;53242;51.694;10.006;2022-08-25T16:21:37;11.00;;;6.03;;
66429;SDS011;53242;51.694;10.006;2022-08-25T16:24:00;10.93;;;5.32;;
66429;SDS011;53242;51.694;10.006;2022-08-25T16:26:24;10.48;;;5.32;;
66429;SDS011;53242;51.694;10.006;2022-08-25T16:28:46;10.77;;;5.40;;
66429;SDS011;53242;51.694;10.006;2022-08-25T16:31:10;15.65;;;5.72;;
66429;SDS011;53242;51.694;10.006;2022-08-25T16:33:33;12.10;;;6.00;;
66429;SDS011;53242;51.694;10.006;2022-08-25T16:36:08;12.02;;;5.28;;
66429;SDS011;53242;51.694;10.006;2022-08-25T16:38:40;10.45;;;5.65;;
66429;SDS011;53242;51.694;10.006;2022-08-25T16:41:06;11.23;;;6.15;;
66429;SDS011;53242;51.694;10.006;2022-08-25T16:43:29;12.30;;;5.57;;